sensor_id;sensor_type;location;lat;lon;timestamp;P1;durP1;ratioP1;P2;durP2;ratioP2
43801;SDS011;29429;51.074;13.764;2022-11-20T00:01:13;31.10;;;13.93;;
43801;SDS011;29429;51.074;13.764;2022-11-20T00:03:42;32.17;;;13.98;;
43801;SDS011;29429;51.074;13.764;2022-11-20T00:06:10;28.90;;;13.73;;
43801;SDS011;29429;51.074;13.764;2022-11-20T00:08:40;27.90;;;12.95;;
43801;SDS011;29429;51.074;13.764;2022-11-20T00:11:12;29.42;;;14.07;;
43801;SDS011;29429;51.074;13.764;2022-11-20T00:13:46;34.10;;;14.60;;
43801;SDS011;29429;51.074;13.764;2022-11-20T00:16:16;30.85;;;14.00;;
43801;SDS011;29429;51.074;13.764;2022-11-20T00:18:46;34.30;;;14.82;;
43801;SDS011;29429;51.074;13.764;2022-11-20T00:21:15;33.13;;;14.80;;
43801;SDS011;29429;51.074;13.764;2022-11-20T00:23:53;31.98;;;14.43;;
43801;SDS011;29429;51.074;13.764;2022-11-20T00:26:23;35.53;;;15.52;;
43801;SDS011;29429;51.074;13.764;2022-11-20T00:28:53;31.70;;;14.55;;
43801;SDS011;29429;51.074;13.764;2022-11-20T00:31:27;34.83;;;14.82;;
43801;SDS011;29429;51.074;13.764;2022-11-20T00:33:56;32.33;;;15.90;;
43801;SDS011;29429;51.074;13.764;2022-11-20T00:36:24;34.97;;;15.23;;
43801;SDS011;29429;51.074;13.764;2022-11-20T00:38:54;32.47;;;14.05;;
43801;SDS011;29429;51.074;13.764;2022-11-20T00:41:24;32.15;;;13.68;;
43801;SDS011;29429;51.074;13.764;2022-11-20T00:43:53;33.75;;;15.02;;
43801;SDS011;29429;51.074;13.764;2022-11-20T00:46:22;32.70;;;15.05;;
43801;SDS011;29429;51.074;13.764;2022-11-20T00:48:52;35.50;;;15.88;;
43801;SDS011;29429;51.074;13.764;2022-11-20T00:51:20;35.97;;;16.23;;
43801;SDS011;29429;51.074;13.764;2022-11-20T00:53:50;36.92;;;16.65;;
43801;SDS011;29429;51.074;13.764;2022-11-20T00:56:18;37.20;;;16.92;;
43801;SDS011;29429;51.074;13.764;2022-11-20T00:58:46;37.38;;;16.67;;
43801;SDS011;29429;51.074;13.764;2022-11-20T01:01:18;37.70;;;15.73;;
43801;SDS011;29429;51.074;13.764;2022-11-20T01:03:51;34.03;;;15.95;;
43801;SDS011;29429;51.074;13.764;2022-11-20T01:06:21;33.85;;;14.80;;
43801;SDS011;29429;51.074;13.764;2022-11-20T01:08:52;38.13;;;15.70;;
43801;SDS011;29429;51.074;13.764;2022-11-20T01:11:23;36.25;;;16.30;;
43801;SDS011;29429;51.074;13.764;2022-11-20T01:13:54;35.00;;;14.43;;
43801;SDS011;29429;51.074;13.764;2022-11-20T01:16:24;36.60;;;16.05;;
43801;SDS011;29429;51.074;13.764;2022-11-20T01:18:56;38.63;;;16.95;;
43801;SDS011;29429;51.074;13.764;2022-11-20T01:21:33;36.05;;;15.75;;
43801;SDS011;29429;51.074;13.764;2022-11-20T01:24:04;37.05;;;15.68;;
43801;SDS011;29429;51.074;13.764;2022-11-20T01:26:35;37.42;;;15.38;;
43801;SDS011;29429;51.074;13.764;2022-11-20T01:29:04;35.03;;;15.48;;
43801;SDS011;29429;51.074;13.764;2022-11-20T01:31:34;35.03;;;15.35;;
43801;SDS011;29429;51.074;13.764;2022-11-20T01:34:04;36.35;;;16.08;;
43801;SDS011;29429;51.074;13.764;2022-11-20T01:36:43;36.58;;;15.48;;
43801;SDS011;29429;51.074;13.764;2022-11-20T01:39:15;34.83;;;15.15;;
43801;SDS011;29429;51.074;13.764;2022-11-20T01:41:47;35.97;;;16.02;;
43801;SDS011;29429;51.074;13.764;2022-11-20T01:47:24;33.38;;;14.93;;
43801;SDS011;29429;51.074;13.764;2022-11-20T01:50:21;35.17;;;15.30;;
43801;SDS011;29429;51.074;13.764;2022-11-20T01:52:56;33.63;;;15.00;;
43801;SDS011;29429;51.074;13.764;2022-11-20T01:55:34;35.85;;;15.05;;
43801;SDS011;29429;51.074;13.764;2022-11-20T01:58:07;29.92;;;13.82;;
43801;SDS011;29429;51.074;13.764;2022-11-20T02:00:35;37.45;;;16.25;;
43801;SDS011;29429;51.074;13.764;2022-11-20T02:03:03;33.08;;;15.32;;
43801;SDS011;29429;51.074;13.764;2022-11-20T02:05:41;39.15;;;16.35;;
43801;SDS011;29429;51.074;13.764;2022-11-20T02:08:16;36.05;;;14.93;;
43801;SDS011;29429;51.074;13.764;2022-11-20T02:10:45;34.15;;;14.05;;
43801;SDS011;29429;51.074;13.764;2022-11-20T02:13:12;32.80;;;15.00;;
43801;SDS011;29429;51.074;13.764;2022-11-20T02:15:58;34.10;;;15.70;;
43801;SDS011;29429;51.074;13.764;2022-11-20T02:18:25;34.03;;;14.77;;
43801;SDS011;29429;51.074;13.764;2022-11-20T02:20:58;32.33;;;14.50;;
43801;SDS011;29429;51.074;13.764;2022-11-20T02:23:38;37.13;;;16.58;;
43801;SDS011;29429;51.074;13.764;2022-11-20T02:26:28;33.83;;;15.75;;
43801;SDS011;29429;51.074;13.764;2022-11-20T02:29:00;36.80;;;15.20;;
43801;SDS011;29429;51.074;13.764;2022-11-20T02:31:33;36.30;;;15.73;;
43801;SDS011;29429;51.074;13.764;2022-11-20T02:34:08;39.17;;;16.15;;
43801;SDS011;29429;51.074;13.764;2022-11-20T02:36:35;36.30;;;15.82;;
43801;SDS011;29429;51.074;13.764;2022-11-20T02:39:06;36.53;;;15.25;;
43801;SDS011;29429;51.074;13.764;2022-11-20T02:41:35;36.70;;;15.00;;
43801;SDS011;29429;51.074;13.764;2022-11-20T02:44:04;31.15;;;14.60;;
43801;SDS011;29429;51.074;13.764;2022-11-20T02:46:31;40.08;;;16.30;;
43801;SDS011;29429;51.074;13.764;2022-11-20T02:49:00;39.58;;;17.15;;
43801;SDS011;29429;51.074;13.764;2022-11-20T02:51:29;35.97;;;15.43;;
43801;SDS011;29429;51.074;13.764;2022-11-20T02:53:56;41.50;;;16.85;;
43801;SDS011;29429;51.074;13.764;2022-11-20T02:56:24;38.20;;;15.65;;
43801;SDS011;29429;51.074;13.764;2022-11-20T02:58:51;38.13;;;16.25;;
43801;SDS011;29429;51.074;13.764;2022-11-20T03:01:18;37.15;;;16.40;;
43801;SDS011;29429;51.074;13.764;2022-11-20T03:03:45;34.70;;;15.43;;
43801;SDS011;29429;51.074;13.764;2022-11-20T03:06:17;41.10;;;16.20;;
43801;SDS011;29429;51.074;13.764;2022-11-20T03:08:44;38.70;;;15.40;;
43801;SDS011;29429;51.074;13.764;2022-11-20T03:11:11;38.97;;;16.08;;
43801;SDS011;29429;51.074;13.764;2022-11-20T03:13:38;42.17;;;17.23;;
43801;SDS011;29429;51.074;13.764;2022-11-20T03:16:09;35.50;;;15.95;;
43801;SDS011;29429;51.074;13.764;2022-11-20T03:18:40;42.17;;;18.95;;
43801;SDS011;29429;51.074;13.764;2022-11-20T03:21:08;35.15;;;15.35;;
43801;SDS011;29429;51.074;13.764;2022-11-20T03:23:38;37.70;;;16.20;;
43801;SDS011;29429;51.074;13.764;2022-11-20T03:26:16;42.28;;;17.52;;
43801;SDS011;29429;51.074;13.764;2022-11-20T03:28:48;36.92;;;15.80;;
43801;SDS011;29429;51.074;13.764;2022-11-20T03:31:38;43.28;;;16.33;;
43801;SDS011;29429;51.074;13.764;2022-11-20T03:34:08;37.22;;;16.40;;
43801;SDS011;29429;51.074;13.764;2022-11-20T03:36:38;35.92;;;15.73;;
43801;SDS011;29429;51.074;13.764;2022-11-20T03:39:06;41.90;;;15.48;;
43801;SDS011;29429;51.074;13.764;2022-11-20T03:41:38;41.00;;;16.48;;
43801;SDS011;29429;51.074;13.764;2022-11-20T03:44:08;37.65;;;15.80;;
43801;SDS011;29429;51.074;13.764;2022-11-20T03:46:37;40.72;;;16.83;;
43801;SDS011;29429;51.074;13.764;2022-11-20T03:49:05;38.80;;;17.42;;
43801;SDS011;29429;51.074;13.764;2022-11-20T03:51:34;36.30;;;15.20;;
43801;SDS011;29429;51.074;13.764;2022-11-20T03:54:03;38.85;;;15.93;;
43801;SDS011;29429;51.074;13.764;2022-11-20T03:56:34;37.58;;;15.75;;
43801;SDS011;29429;51.074;13.764;2022-11-20T03:59:03;39.42;;;16.95;;
43801;SDS011;29429;51.074;13.764;2022-11-20T04:01:35;38.00;;;16.13;;
43801;SDS011;29429;51.074;13.764;2022-11-20T04:04:09;43.28;;;15.77;;
43801;SDS011;29429;51.074;13.764;2022-11-20T04:06:37;40.15;;;16.95;;
43801;SDS011;29429;51.074;13.764;2022-11-20T04:09:05;38.13;;;16.48;;
43801;SDS011;29429;51.074;13.764;2022-11-20T04:11:33;41.00;;;16.58;;
43801;SDS011;29429;51.074;13.764;2022-11-20T04:14:04;41.75;;;17.25;;
43801;SDS011;29429;51.074;13.764;2022-11-20T04:16:38;41.03;;;16.48;;
43801;SDS011;29429;51.074;13.764;2022-11-20T04:19:06;43.63;;;16.83;;
43801;SDS011;29429;51.074;13.764;2022-11-20T04:21:37;38.38;;;16.33;;
43801;SDS011;29429;51.074;13.764;2022-11-20T04:24:04;34.10;;;15.45;;
43801;SDS011;29429;51.074;13.764;2022-11-20T04:26:32;37.95;;;15.57;;
43801;SDS011;29429;51.074;13.764;2022-11-20T04:29:00;36.13;;;15.48;;
43801;SDS011;29429;51.074;13.764;2022-11-20T04:31:31;38.70;;;15.55;;
43801;SDS011;29429;51.074;13.764;2022-11-20T04:34:01;38.72;;;15.00;;
43801;SDS011;29429;51.074;13.764;2022-11-20T04:36:31;38.35;;;15.23;;
43801;SDS011;29429;51.074;13.764;2022-11-20T04:38:59;38.97;;;15.35;;
43801;SDS011;29429;51.074;13.764;2022-11-20T04:41:32;42.40;;;15.63;;
43801;SDS011;29429;51.074;13.764;2022-11-20T04:44:04;36.75;;;15.02;;
43801;SDS011;29429;51.074;13.764;2022-11-20T04:46:41;39.50;;;16.20;;
43801;SDS011;29429;51.074;13.764;2022-11-20T04:49:10;36.58;;;15.07;;
43801;SDS011;29429;51.074;13.764;2022-11-20T04:51:38;35.25;;;14.80;;
43801;SDS011;29429;51.074;13.764;2022-11-20T04:54:04;38.47;;;15.80;;
43801;SDS011;29429;51.074;13.764;2022-11-20T04:56:31;35.63;;;15.13;;
43801;SDS011;29429;51.074;13.764;2022-11-20T04:59:02;43.58;;;16.02;;
43801;SDS011;29429;51.074;13.764;2022-11-20T05:01:29;40.83;;;16.17;;
43801;SDS011;29429;51.074;13.764;2022-11-20T05:03:56;35.75;;;14.98;;
43801;SDS011;29429;51.074;13.764;2022-11-20T05:06:23;33.28;;;14.07;;
43801;SDS011;29429;51.074;13.764;2022-11-20T05:08:51;35.50;;;14.75;;
43801;SDS011;29429;51.074;13.764;2022-11-20T05:11:19;33.72;;;15.23;;
43801;SDS011;29429;51.074;13.764;2022-11-20T05:13:47;33.03;;;15.13;;
43801;SDS011;29429;51.074;13.764;2022-11-20T05:16:17;36.85;;;15.68;;
43801;SDS011;29429;51.074;13.764;2022-11-20T05:18:47;34.40;;;14.52;;
43801;SDS011;29429;51.074;13.764;2022-11-20T05:21:16;38.78;;;15.20;;
43801;SDS011;29429;51.074;13.764;2022-11-20T05:23:44;38.03;;;14.98;;
43801;SDS011;29429;51.074;13.764;2022-11-20T05:26:16;40.05;;;15.50;;
43801;SDS011;29429;51.074;13.764;2022-11-20T05:28:47;40.67;;;15.88;;
43801;SDS011;29429;51.074;13.764;2022-11-20T05:31:16;38.47;;;16.73;;
43801;SDS011;29429;51.074;13.764;2022-11-20T05:33:52;37.88;;;15.10;;
43801;SDS011;29429;51.074;13.764;2022-11-20T05:36:20;40.35;;;16.40;;
43801;SDS011;29429;51.074;13.764;2022-11-20T05:38:47;40.22;;;16.38;;
43801;SDS011;29429;51.074;13.764;2022-11-20T05:41:17;39.72;;;16.00;;
43801;SDS011;29429;51.074;13.764;2022-11-20T05:43:47;37.22;;;15.60;;
43801;SDS011;29429;51.074;13.764;2022-11-20T05:46:16;40.75;;;16.05;;
43801;SDS011;29429;51.074;13.764;2022-11-20T05:48:53;36.63;;;16.05;;
43801;SDS011;29429;51.074;13.764;2022-11-20T05:51:21;40.55;;;15.48;;
43801;SDS011;29429;51.074;13.764;2022-11-20T05:53:48;39.53;;;15.50;;
43801;SDS011;29429;51.074;13.764;2022-11-20T05:56:17;38.85;;;16.10;;
43801;SDS011;29429;51.074;13.764;2022-11-20T05:58:47;38.20;;;15.90;;
43801;SDS011;29429;51.074;13.764;2022-11-20T06:03:48;38.58;;;15.60;;
43801;SDS011;29429;51.074;13.764;2022-11-20T06:06:17;39.03;;;14.00;;
43801;SDS011;29429;51.074;13.764;2022-11-20T06:08:45;39.00;;;15.63;;
43801;SDS011;29429;51.074;13.764;2022-11-20T06:11:12;36.05;;;15.18;;
43801;SDS011;29429;51.074;13.764;2022-11-20T06:13:41;38.67;;;15.35;;
43801;SDS011;29429;51.074;13.764;2022-11-20T06:16:09;37.38;;;15.85;;
43801;SDS011;29429;51.074;13.764;2022-11-20T06:18:38;35.78;;;15.77;;
43801;SDS011;29429;51.074;13.764;2022-11-20T06:21:06;42.35;;;15.95;;
43801;SDS011;29429;51.074;13.764;2022-11-20T06:23:38;38.28;;;16.15;;
43801;SDS011;29429;51.074;13.764;2022-11-20T06:26:07;38.15;;;15.43;;
43801;SDS011;29429;51.074;13.764;2022-11-20T06:28:41;38.93;;;15.90;;
43801;SDS011;29429;51.074;13.764;2022-11-20T06:31:10;36.85;;;14.95;;
43801;SDS011;29429;51.074;13.764;2022-11-20T06:33:40;33.53;;;15.70;;
43801;SDS011;29429;51.074;13.764;2022-11-20T06:36:09;34.55;;;14.60;;
43801;SDS011;29429;51.074;13.764;2022-11-20T06:38:38;36.30;;;15.27;;
43801;SDS011;29429;51.074;13.764;2022-11-20T06:41:06;43.13;;;16.80;;
43801;SDS011;29429;51.074;13.764;2022-11-20T06:43:38;40.63;;;14.80;;
43801;SDS011;29429;51.074;13.764;2022-11-20T06:46:05;37.80;;;15.00;;
43801;SDS011;29429;51.074;13.764;2022-11-20T06:48:32;36.65;;;15.88;;
43801;SDS011;29429;51.074;13.764;2022-11-20T06:50:59;39.50;;;16.63;;
43801;SDS011;29429;51.074;13.764;2022-11-20T06:53:31;35.25;;;13.88;;
43801;SDS011;29429;51.074;13.764;2022-11-20T06:55:58;39.05;;;14.70;;
43801;SDS011;29429;51.074;13.764;2022-11-20T06:58:29;42.28;;;16.05;;
43801;SDS011;29429;51.074;13.764;2022-11-20T07:01:02;37.90;;;15.18;;
43801;SDS011;29429;51.074;13.764;2022-11-20T07:03:33;39.95;;;15.15;;
43801;SDS011;29429;51.074;13.764;2022-11-20T07:06:00;37.55;;;14.02;;
43801;SDS011;29429;51.074;13.764;2022-11-20T07:08:28;42.92;;;18.10;;
43801;SDS011;29429;51.074;13.764;2022-11-20T07:10:59;42.03;;;15.93;;
43801;SDS011;29429;51.074;13.764;2022-11-20T07:13:29;34.42;;;14.45;;
43801;SDS011;29429;51.074;13.764;2022-11-20T07:19:16;36.20;;;15.32;;
43801;SDS011;29429;51.074;13.764;2022-11-20T07:21:43;40.75;;;16.35;;
43801;SDS011;29429;51.074;13.764;2022-11-20T07:24:10;37.25;;;16.27;;
43801;SDS011;29429;51.074;13.764;2022-11-20T07:26:37;39.65;;;17.02;;
43801;SDS011;29429;51.074;13.764;2022-11-20T07:29:04;41.13;;;16.20;;
43801;SDS011;29429;51.074;13.764;2022-11-20T07:31:31;41.67;;;16.90;;
43801;SDS011;29429;51.074;13.764;2022-11-20T07:33:58;41.28;;;15.55;;
43801;SDS011;29429;51.074;13.764;2022-11-20T07:36:25;39.53;;;16.17;;
43801;SDS011;29429;51.074;13.764;2022-11-20T07:38:52;44.92;;;16.90;;
43801;SDS011;29429;51.074;13.764;2022-11-20T07:41:20;38.58;;;16.38;;
43801;SDS011;29429;51.074;13.764;2022-11-20T07:43:47;40.22;;;15.50;;
43801;SDS011;29429;51.074;13.764;2022-11-20T07:46:14;40.45;;;17.13;;
43801;SDS011;29429;51.074;13.764;2022-11-20T07:48:41;36.35;;;14.82;;
43801;SDS011;29429;51.074;13.764;2022-11-20T07:51:08;41.70;;;16.85;;
43801;SDS011;29429;51.074;13.764;2022-11-20T07:53:35;40.88;;;17.25;;
43801;SDS011;29429;51.074;13.764;2022-11-20T07:56:02;62.42;;;25.60;;
43801;SDS011;29429;51.074;13.764;2022-11-20T07:58:29;46.47;;;21.63;;
43801;SDS011;29429;51.074;13.764;2022-11-20T08:01:02;43.88;;;18.95;;
43801;SDS011;29429;51.074;13.764;2022-11-20T08:03:34;43.92;;;18.13;;
43801;SDS011;29429;51.074;13.764;2022-11-20T08:06:03;51.85;;;21.35;;
43801;SDS011;29429;51.074;13.764;2022-11-20T08:08:31;47.55;;;19.02;;
43801;SDS011;29429;51.074;13.764;2022-11-20T08:10:59;47.50;;;20.23;;
43801;SDS011;29429;51.074;13.764;2022-11-20T08:13:46;39.38;;;17.23;;
43801;SDS011;29429;51.074;13.764;2022-11-20T08:16:31;149.88;;;56.28;;
43801;SDS011;29429;51.074;13.764;2022-11-20T08:18:58;74.53;;;29.90;;
43801;SDS011;29429;51.074;13.764;2022-11-20T08:21:25;97.53;;;36.63;;
43801;SDS011;29429;51.074;13.764;2022-11-20T08:23:52;80.38;;;32.55;;
43801;SDS011;29429;51.074;13.764;2022-11-20T08:26:20;63.88;;;27.35;;
43801;SDS011;29429;51.074;13.764;2022-11-20T08:28:47;62.97;;;25.08;;
43801;SDS011;29429;51.074;13.764;2022-11-20T08:31:14;52.38;;;22.58;;
43801;SDS011;29429;51.074;13.764;2022-11-20T08:33:41;53.90;;;23.48;;
43801;SDS011;29429;51.074;13.764;2022-11-20T08:36:08;49.13;;;21.90;;
43801;SDS011;29429;51.074;13.764;2022-11-20T08:38:35;45.30;;;19.58;;
43801;SDS011;29429;51.074;13.764;2022-11-20T08:41:03;48.03;;;19.85;;
43801;SDS011;29429;51.074;13.764;2022-11-20T08:43:50;42.83;;;18.30;;
43801;SDS011;29429;51.074;13.764;2022-11-20T08:46:24;49.20;;;20.05;;
43801;SDS011;29429;51.074;13.764;2022-11-20T08:48:53;47.40;;;19.73;;
43801;SDS011;29429;51.074;13.764;2022-11-20T08:51:20;40.67;;;18.70;;
43801;SDS011;29429;51.074;13.764;2022-11-20T08:53:47;40.85;;;18.40;;
43801;SDS011;29429;51.074;13.764;2022-11-20T08:56:17;46.17;;;19.30;;
43801;SDS011;29429;51.074;13.764;2022-11-20T08:58:44;46.97;;;20.40;;
43801;SDS011;29429;51.074;13.764;2022-11-20T09:01:31;40.00;;;18.02;;
43801;SDS011;29429;51.074;13.764;2022-11-20T09:03:58;41.53;;;19.02;;
43801;SDS011;29429;51.074;13.764;2022-11-20T09:06:26;45.28;;;20.40;;
43801;SDS011;29429;51.074;13.764;2022-11-20T09:08:53;50.03;;;20.40;;
43801;SDS011;29429;51.074;13.764;2022-11-20T09:11:21;47.47;;;20.65;;
43801;SDS011;29429;51.074;13.764;2022-11-20T09:13:48;46.45;;;20.13;;
43801;SDS011;29429;51.074;13.764;2022-11-20T09:16:15;39.83;;;19.77;;
43801;SDS011;29429;51.074;13.764;2022-11-20T09:18:42;44.78;;;20.27;;
43801;SDS011;29429;51.074;13.764;2022-11-20T09:21:10;43.33;;;20.23;;
43801;SDS011;29429;51.074;13.764;2022-11-20T09:23:40;38.95;;;17.50;;
43801;SDS011;29429;51.074;13.764;2022-11-20T09:26:09;41.15;;;17.65;;
43801;SDS011;29429;51.074;13.764;2022-11-20T09:28:38;38.63;;;18.38;;
43801;SDS011;29429;51.074;13.764;2022-11-20T09:31:06;43.42;;;19.65;;
43801;SDS011;29429;51.074;13.764;2022-11-20T09:33:36;39.22;;;18.23;;
43801;SDS011;29429;51.074;13.764;2022-11-20T09:36:03;36.65;;;17.40;;
43801;SDS011;29429;51.074;13.764;2022-11-20T09:38:30;37.97;;;17.95;;
43801;SDS011;29429;51.074;13.764;2022-11-20T09:40:58;39.67;;;18.05;;
43801;SDS011;29429;51.074;13.764;2022-11-20T09:53:08;33.08;;;15.27;;
43801;SDS011;29429;51.074;13.764;2022-11-20T09:55:46;33.65;;;14.57;;
43801;SDS011;29429;51.074;13.764;2022-11-20T09:58:22;32.13;;;14.73;;
43801;SDS011;29429;51.074;13.764;2022-11-20T10:01:35;29.92;;;13.95;;
43801;SDS011;29429;51.074;13.764;2022-11-20T10:04:18;29.98;;;13.52;;
43801;SDS011;29429;51.074;13.764;2022-11-20T10:09:53;27.80;;;13.35;;
43801;SDS011;29429;51.074;13.764;2022-11-20T10:29:29;29.80;;;13.05;;
43801;SDS011;29429;51.074;13.764;2022-11-20T10:32:11;28.00;;;13.50;;
43801;SDS011;29429;51.074;13.764;2022-11-20T10:34:48;23.65;;;12.02;;
43801;SDS011;29429;51.074;13.764;2022-11-20T10:37:29;21.52;;;10.73;;
43801;SDS011;29429;51.074;13.764;2022-11-20T10:42:57;21.60;;;10.63;;
43801;SDS011;29429;51.074;13.764;2022-11-20T10:45:33;24.92;;;12.93;;
43801;SDS011;29429;51.074;13.764;2022-11-20T10:48:10;23.90;;;11.07;;
43801;SDS011;29429;51.074;13.764;2022-11-20T10:57:45;21.77;;;10.55;;
43801;SDS011;29429;51.074;13.764;2022-11-20T11:01:02;19.27;;;9.98;;
43801;SDS011;29429;51.074;13.764;2022-11-20T11:03:42;19.90;;;10.32;;
43801;SDS011;29429;51.074;13.764;2022-11-20T11:06:16;18.85;;;10.20;;
43801;SDS011;29429;51.074;13.764;2022-11-20T11:09:13;19.63;;;9.85;;
43801;SDS011;29429;51.074;13.764;2022-11-20T11:11:47;26.25;;;11.18;;
43801;SDS011;29429;51.074;13.764;2022-11-20T11:14:14;18.67;;;9.90;;
43801;SDS011;29429;51.074;13.764;2022-11-20T11:16:52;20.58;;;10.85;;
43801;SDS011;29429;51.074;13.764;2022-11-20T11:19:21;20.33;;;10.57;;
43801;SDS011;29429;51.074;13.764;2022-11-20T11:21:54;15.77;;;9.20;;
43801;SDS011;29429;51.074;13.764;2022-11-20T11:24:27;17.90;;;9.55;;
43801;SDS011;29429;51.074;13.764;2022-11-20T11:27:12;17.02;;;9.02;;
43801;SDS011;29429;51.074;13.764;2022-11-20T11:29:44;17.48;;;10.50;;
43801;SDS011;29429;51.074;13.764;2022-11-20T11:32:13;20.45;;;10.95;;
43801;SDS011;29429;51.074;13.764;2022-11-20T11:34:43;16.17;;;9.32;;
43801;SDS011;29429;51.074;13.764;2022-11-20T11:37:12;20.88;;;10.75;;
43801;SDS011;29429;51.074;13.764;2022-11-20T11:39:45;17.13;;;9.63;;
43801;SDS011;29429;51.074;13.764;2022-11-20T11:42:29;17.77;;;10.48;;
43801;SDS011;29429;51.074;13.764;2022-11-20T11:45:00;16.95;;;9.32;;
43801;SDS011;29429;51.074;13.764;2022-11-20T11:47:37;20.73;;;11.13;;
43801;SDS011;29429;51.074;13.764;2022-11-20T11:50:14;17.90;;;9.82;;
43801;SDS011;29429;51.074;13.764;2022-11-20T11:55:43;12.75;;;7.43;;
43801;SDS011;29429;51.074;13.764;2022-11-20T11:58:44;12.32;;;7.43;;
43801;SDS011;29429;51.074;13.764;2022-11-20T12:04:19;13.32;;;6.97;;
43801;SDS011;29429;51.074;13.764;2022-11-20T12:07:32;13.00;;;7.20;;
43801;SDS011;29429;51.074;13.764;2022-11-20T12:16:00;15.35;;;7.72;;
43801;SDS011;29429;51.074;13.764;2022-11-20T12:18:30;14.95;;;7.82;;
43801;SDS011;29429;51.074;13.764;2022-11-20T12:32:33;13.68;;;7.63;;
43801;SDS011;29429;51.074;13.764;2022-11-20T12:41:36;15.52;;;9.02;;
43801;SDS011;29429;51.074;13.764;2022-11-20T13:05:51;13.05;;;7.43;;
43801;SDS011;29429;51.074;13.764;2022-11-20T13:08:24;13.70;;;7.57;;
43801;SDS011;29429;51.074;13.764;2022-11-20T13:19:15;13.45;;;7.63;;
43801;SDS011;29429;51.074;13.764;2022-11-20T13:21:45;15.20;;;7.40;;
43801;SDS011;29429;51.074;13.764;2022-11-20T13:29:35;13.95;;;7.57;;
43801;SDS011;29429;51.074;13.764;2022-11-20T13:32:13;13.52;;;6.85;;
43801;SDS011;29429;51.074;13.764;2022-11-20T13:34:57;12.27;;;6.40;;
43801;SDS011;29429;51.074;13.764;2022-11-20T13:42:35;11.32;;;6.80;;
43801;SDS011;29429;51.074;13.764;2022-11-20T13:45:25;13.73;;;6.93;;
43801;SDS011;29429;51.074;13.764;2022-11-20T13:47:55;11.90;;;6.32;;
43801;SDS011;29429;51.074;13.764;2022-11-20T13:53:10;11.13;;;6.65;;
43801;SDS011;29429;51.074;13.764;2022-11-20T13:59:24;12.15;;;7.05;;
43801;SDS011;29429;51.074;13.764;2022-11-20T14:02:16;14.05;;;7.25;;
43801;SDS011;29429;51.074;13.764;2022-11-20T14:04:46;12.63;;;6.53;;
43801;SDS011;29429;51.074;13.764;2022-11-20T14:07:35;12.10;;;6.70;;
43801;SDS011;29429;51.074;13.764;2022-11-20T14:10:25;11.55;;;6.47;;
43801;SDS011;29429;51.074;13.764;2022-11-20T14:12:58;9.55;;;5.63;;
43801;SDS011;29429;51.074;13.764;2022-11-20T14:15:36;10.75;;;6.38;;
43801;SDS011;29429;51.074;13.764;2022-11-20T14:18:14;13.35;;;7.15;;
43801;SDS011;29429;51.074;13.764;2022-11-20T14:20:48;11.73;;;6.72;;
43801;SDS011;29429;51.074;13.764;2022-11-20T14:23:23;11.07;;;6.60;;
43801;SDS011;29429;51.074;13.764;2022-11-20T14:25:56;13.00;;;7.45;;
43801;SDS011;29429;51.074;13.764;2022-11-20T14:28:30;12.05;;;7.10;;
43801;SDS011;29429;51.074;13.764;2022-11-20T14:30:57;13.85;;;7.20;;
43801;SDS011;29429;51.074;13.764;2022-11-20T14:33:25;13.05;;;7.43;;
43801;SDS011;29429;51.074;13.764;2022-11-20T14:35:54;16.17;;;8.25;;
43801;SDS011;29429;51.074;13.764;2022-11-20T14:38:25;17.52;;;8.57;;
43801;SDS011;29429;51.074;13.764;2022-11-20T14:41:08;15.27;;;8.15;;
43801;SDS011;29429;51.074;13.764;2022-11-20T14:43:52;16.73;;;8.07;;
43801;SDS011;29429;51.074;13.764;2022-11-20T14:46:24;13.85;;;7.68;;
43801;SDS011;29429;51.074;13.764;2022-11-20T14:48:54;16.45;;;8.05;;
43801;SDS011;29429;51.074;13.764;2022-11-20T14:51:37;14.60;;;7.95;;
43801;SDS011;29429;51.074;13.764;2022-11-20T14:54:16;14.05;;;8.02;;
43801;SDS011;29429;51.074;13.764;2022-11-20T14:56:55;14.00;;;7.55;;
43801;SDS011;29429;51.074;13.764;2022-11-20T14:59:31;14.05;;;7.30;;
43801;SDS011;29429;51.074;13.764;2022-11-20T15:02:08;18.65;;;9.77;;
43801;SDS011;29429;51.074;13.764;2022-11-20T15:04:51;16.75;;;8.25;;
43801;SDS011;29429;51.074;13.764;2022-11-20T15:07:29;16.13;;;8.85;;
43801;SDS011;29429;51.074;13.764;2022-11-20T15:12:34;15.68;;;8.45;;
43801;SDS011;29429;51.074;13.764;2022-11-20T15:15:12;14.20;;;8.10;;
43801;SDS011;29429;51.074;13.764;2022-11-20T15:17:45;16.38;;;8.98;;
43801;SDS011;29429;51.074;13.764;2022-11-20T15:20:14;13.57;;;7.28;;
43801;SDS011;29429;51.074;13.764;2022-11-20T15:22:43;13.07;;;7.88;;
43801;SDS011;29429;51.074;13.764;2022-11-20T15:25:14;18.83;;;9.38;;
43801;SDS011;29429;51.074;13.764;2022-11-20T15:27:44;15.27;;;9.05;;
43801;SDS011;29429;51.074;13.764;2022-11-20T15:30:16;18.83;;;9.98;;
43801;SDS011;29429;51.074;13.764;2022-11-20T15:32:46;19.27;;;9.68;;
43801;SDS011;29429;51.074;13.764;2022-11-20T15:35:14;19.30;;;9.30;;
43801;SDS011;29429;51.074;13.764;2022-11-20T15:37:41;16.63;;;8.25;;
43801;SDS011;29429;51.074;13.764;2022-11-20T15:40:09;18.20;;;8.98;;
43801;SDS011;29429;51.074;13.764;2022-11-20T15:42:37;19.27;;;8.82;;
43801;SDS011;29429;51.074;13.764;2022-11-20T15:45:06;16.67;;;8.98;;
43801;SDS011;29429;51.074;13.764;2022-11-20T15:47:54;18.42;;;9.15;;
43801;SDS011;29429;51.074;13.764;2022-11-20T15:50:21;17.58;;;9.32;;
43801;SDS011;29429;51.074;13.764;2022-11-20T15:52:56;20.92;;;10.38;;
43801;SDS011;29429;51.074;13.764;2022-11-20T15:55:23;19.15;;;9.50;;
43801;SDS011;29429;51.074;13.764;2022-11-20T15:57:50;18.50;;;9.50;;
43801;SDS011;29429;51.074;13.764;2022-11-20T16:00:17;19.55;;;9.77;;
43801;SDS011;29429;51.074;13.764;2022-11-20T16:02:49;20.98;;;10.07;;
43801;SDS011;29429;51.074;13.764;2022-11-20T16:05:17;17.88;;;9.10;;
43801;SDS011;29429;51.074;13.764;2022-11-20T16:07:44;20.88;;;10.00;;
43801;SDS011;29429;51.074;13.764;2022-11-20T16:10:11;20.92;;;9.40;;
43801;SDS011;29429;51.074;13.764;2022-11-20T16:12:38;22.10;;;11.35;;
43801;SDS011;29429;51.074;13.764;2022-11-20T16:15:24;22.52;;;11.40;;
43801;SDS011;29429;51.074;13.764;2022-11-20T16:18:10;20.00;;;10.07;;
43801;SDS011;29429;51.074;13.764;2022-11-20T16:20:39;22.52;;;11.15;;
43801;SDS011;29429;51.074;13.764;2022-11-20T16:23:06;21.77;;;10.35;;
43801;SDS011;29429;51.074;13.764;2022-11-20T16:25:33;26.13;;;11.98;;
43801;SDS011;29429;51.074;13.764;2022-11-20T16:28:00;21.48;;;10.73;;
43801;SDS011;29429;51.074;13.764;2022-11-20T16:30:27;27.45;;;10.50;;
43801;SDS011;29429;51.074;13.764;2022-11-20T16:32:54;20.73;;;10.15;;
43801;SDS011;29429;51.074;13.764;2022-11-20T16:35:21;23.98;;;10.48;;
43801;SDS011;29429;51.074;13.764;2022-11-20T16:37:48;23.35;;;11.10;;
43801;SDS011;29429;51.074;13.764;2022-11-20T16:40:15;26.30;;;11.82;;
43801;SDS011;29429;51.074;13.764;2022-11-20T16:42:42;26.42;;;12.05;;
43801;SDS011;29429;51.074;13.764;2022-11-20T16:45:09;26.38;;;11.90;;